createdAt,value
2022-10-31T00:01:39.113Z,8.23
2022-10-31T00:05:51.454Z,8.90
2022-10-31T00:09:56.408Z,7.20
2022-10-31T00:14:00.052Z,8.67
2022-10-31T00:18:04.024Z,7.90
2022-10-31T00:22:07.513Z,7.63
2022-10-31T00:26:12.877Z,8.37
2022-10-31T00:30:16.742Z,8.37
2022-10-31T00:34:20.404Z,7.90
2022-10-31T00:38:24.181Z,8.00
2022-10-31T00:42:29.114Z,6.43
2022-10-31T00:46:32.540Z,7.13
2022-10-31T00:50:36.092Z,8.27
2022-10-31T00:54:39.735Z,7.10
2022-10-31T00:58:44.903Z,7.93
2022-10-31T01:02:48.767Z,7.80
2022-10-31T01:06:52.549Z,6.63
2022-10-31T01:11:04.146Z,7.60
2022-10-31T01:15:17.587Z,6.80
2022-10-31T01:19:21.323Z,7.47
2022-10-31T01:23:25.746Z,8.20
2022-10-31T01:27:29.690Z,6.53
2022-10-31T01:31:36.932Z,7.10
2022-10-31T01:35:40.582Z,6.80
2022-10-31T01:39:55.805Z,7.87
2022-10-31T01:44:01.094Z,8.00
2022-10-31T01:48:06.273Z,9.07
2022-10-31T01:52:15.043Z,6.50
2022-10-31T01:56:20.172Z,6.83
2022-10-31T02:00:24.879Z,7.97
2022-10-31T02:04:32.075Z,6.90
2022-10-31T02:08:38.965Z,6.27
2022-10-31T02:12:43.894Z,6.90
2022-10-31T02:16:47.631Z,6.90
2022-10-31T02:21:00.162Z,6.10
2022-10-31T02:25:25.554Z,7.10
2022-10-31T02:30:12.669Z,5.87
2022-10-31T02:34:24.312Z,7.60
2022-10-31T02:38:40.139Z,6.17
2022-10-31T02:42:52.513Z,7.90
2022-10-31T02:47:01.715Z,7.43
2022-10-31T02:51:07.567Z,6.63
2022-10-31T02:55:49.569Z,6.83
2022-10-31T02:59:56.483Z,7.03
2022-10-31T03:04:13.239Z,6.00
2022-10-31T03:08:25.962Z,6.90
2022-10-31T03:12:32.747Z,6.33
2022-10-31T03:16:47.966Z,6.33
2022-10-31T03:20:58.903Z,6.47
2022-10-31T03:25:06.885Z,7.00
2022-10-31T03:29:13.672Z,6.67
2022-10-31T03:33:20.232Z,7.10
2022-10-31T03:37:24.878Z,7.60
2022-10-31T03:41:34.588Z,7.40
2022-10-31T03:45:43.417Z,8.67
2022-10-31T03:49:47.183Z,6.40
2022-10-31T03:53:58.851Z,6.43
2022-10-31T03:58:09.266Z,7.00
2022-10-31T04:02:19.359Z,6.57
2022-10-31T04:06:24.059Z,6.23
2022-10-31T04:10:32.955Z,6.67
2022-10-31T04:14:42.107Z,7.47
2022-10-31T04:18:45.970Z,6.57
2022-10-31T04:22:49.475Z,6.90
2022-10-31T04:26:52.931Z,6.10
2022-10-31T04:30:57.882Z,5.53
2022-10-31T04:35:01.695Z,7.00
2022-10-31T04:39:05.320Z,7.40
2022-10-31T04:43:08.996Z,7.50
2022-10-31T04:47:14.322Z,7.00
2022-10-31T04:51:17.933Z,5.93
2022-10-31T04:55:22.609Z,6.87
2022-10-31T04:59:26.319Z,7.00
2022-10-31T05:03:31.435Z,6.70
2022-10-31T05:07:35.135Z,5.83
2022-10-31T05:11:38.695Z,6.80
2022-10-31T05:15:42.250Z,7.10
2022-10-31T05:19:47.162Z,7.77
2022-10-31T05:23:50.716Z,8.57
2022-10-31T05:27:55.159Z,7.60
2022-10-31T05:31:58.718Z,6.40
2022-10-31T05:36:03.828Z,6.57
2022-10-31T05:40:10.370Z,8.40
2022-10-31T05:44:16.128Z,8.03
2022-10-31T05:48:19.876Z,7.10
2022-10-31T05:52:25.053Z,8.50
2022-10-31T05:56:28.931Z,7.37
2022-10-31T06:00:33.257Z,9.57
2022-10-31T06:04:39.381Z,7.30
2022-10-31T06:08:44.979Z,8.57
2022-10-31T06:12:48.769Z,7.43
2022-10-31T06:16:52.286Z,8.47
2022-10-31T06:20:55.681Z,7.93
2022-10-31T06:25:00.780Z,7.80
2022-10-31T06:29:04.695Z,8.90
2022-10-31T06:33:08.437Z,8.10
2022-10-31T06:37:13.701Z,9.13
2022-10-31T06:41:18.463Z,8.87
2022-10-31T06:45:22.054Z,7.40
2022-10-31T06:49:25.960Z,10.10
2022-10-31T06:53:30.769Z,10.30
2022-10-31T06:57:35.588Z,9.50
2022-10-31T07:01:39.157Z,9.80
2022-10-31T07:05:42.825Z,10.20
2022-10-31T07:09:46.177Z,10.00
2022-10-31T07:13:51.020Z,11.10
2022-10-31T07:17:54.446Z,13.13
2022-10-31T07:21:59.093Z,9.70
2022-10-31T07:26:02.593Z,10.17
2022-10-31T07:30:10.552Z,10.13
2022-10-31T07:34:14.068Z,11.33
2022-10-31T07:38:17.988Z,13.57
2022-10-31T07:42:21.455Z,11.50
2022-10-31T07:46:26.474Z,11.83
2022-10-31T07:50:32.281Z,11.30
2022-10-31T07:54:35.934Z,10.77
2022-10-31T07:58:39.824Z,11.40
2022-10-31T08:02:44.968Z,11.13
2022-10-31T08:06:49.459Z,13.83
2022-10-31T08:10:52.780Z,13.53
2022-10-31T08:14:57.439Z,12.83
2022-10-31T08:19:04.403Z,11.47
2022-10-31T08:23:08.102Z,10.50
2022-10-31T08:27:11.339Z,9.73
2022-10-31T08:31:14.713Z,12.37
2022-10-31T08:35:19.500Z,13.97
2022-10-31T08:39:26.919Z,11.40
2022-10-31T08:43:30.268Z,11.10
2022-10-31T08:47:33.664Z,14.13
2022-10-31T08:51:38.494Z,26.30
2022-10-31T08:55:44.326Z,21.57
2022-10-31T08:59:47.791Z,14.93
2022-10-31T09:03:51.079Z,13.33
2022-10-31T09:07:58.098Z,10.30
2022-10-31T09:12:01.795Z,8.93
2022-10-31T09:16:05.361Z,7.07
2022-10-31T09:20:09.367Z,6.93
2022-10-31T09:24:14.637Z,7.27
2022-10-31T09:28:20.963Z,6.50
2022-10-31T09:32:24.443Z,5.70
2022-10-31T09:36:29.472Z,5.30
2022-10-31T09:40:37.144Z,7.13
2022-10-31T09:44:54.017Z,5.87
2022-10-31T09:49:25.503Z,5.27
2022-10-31T09:53:37.264Z,6.20
2022-10-31T09:57:44.057Z,6.03
2022-10-31T10:01:52.037Z,6.90
2022-10-31T10:05:59.762Z,6.87
2022-10-31T10:10:13.134Z,5.40
2022-10-31T10:14:33.969Z,6.17
2022-10-31T10:18:50.427Z,5.80
2022-10-31T10:23:02.682Z,6.77
2022-10-31T10:27:18.007Z,7.00
2022-10-31T10:31:29.748Z,6.47
2022-10-31T10:35:36.370Z,5.73
2022-10-31T10:39:44.372Z,6.20
2022-10-31T10:48:01.829Z,7.13
2022-10-31T10:52:35.296Z,6.47
2022-10-31T10:56:47.523Z,5.70
2022-10-31T11:00:51.644Z,6.70
2022-10-31T11:04:59.137Z,6.07
2022-10-31T11:09:11.299Z,5.40
2022-10-31T11:13:24.712Z,6.50
2022-10-31T11:17:33.218Z,5.70
2022-10-31T11:21:38.082Z,5.97
2022-10-31T11:25:41.415Z,6.50
2022-10-31T11:29:44.944Z,6.10
2022-10-31T11:33:52.884Z,6.20
2022-10-31T11:38:01.599Z,6.27
2022-10-31T11:42:08.897Z,6.90
2022-10-31T11:46:14.620Z,5.63
2022-10-31T11:50:23.520Z,5.73
2022-10-31T11:54:31.313Z,6.17
2022-10-31T11:58:34.979Z,6.30
2022-10-31T12:02:38.380Z,5.97
2022-10-31T12:06:43.247Z,5.80
2022-10-31T12:11:00.248Z,5.23
2022-10-31T12:15:18.061Z,5.60
2022-10-31T12:19:32.845Z,5.33
2022-10-31T12:23:45.049Z,5.20
2022-10-31T12:28:13.882Z,5.60
2022-10-31T12:32:39.570Z,6.30
2022-10-31T12:36:52.432Z,4.80
2022-10-31T12:41:17.016Z,5.50
2022-10-31T12:45:38.693Z,5.60
2022-10-31T12:49:49.814Z,5.33
2022-10-31T12:54:07.864Z,5.07
2022-10-31T12:58:17.185Z,5.47
2022-10-31T13:02:25.464Z,5.90
2022-10-31T13:06:34.479Z,4.80
2022-10-31T13:10:44.465Z,10.60
2022-10-31T13:14:51.511Z,8.13
2022-10-31T13:19:00.255Z,6.40
2022-10-31T13:23:29.996Z,5.80
2022-10-31T13:27:47.214Z,20.50
2022-10-31T13:31:50.617Z,6.07
2022-10-31T13:36:04.939Z,6.10
2022-10-31T13:40:17.073Z,6.07
2022-10-31T13:44:25.113Z,7.40
2022-10-31T13:48:44.256Z,6.43
2022-10-31T13:52:49.093Z,8.50
2022-10-31T13:56:53.942Z,7.33
2022-10-31T14:01:15.796Z,6.27
2022-10-31T14:05:26.090Z,6.70
2022-10-31T14:09:34.033Z,6.13
2022-10-31T14:13:42.415Z,10.63
2022-10-31T14:17:50.065Z,6.13
2022-10-31T14:21:53.479Z,6.27
2022-10-31T14:26:10.101Z,6.47
2022-10-31T14:30:18.441Z,5.63
2022-10-31T14:34:25.810Z,5.60
2022-10-31T14:38:45.744Z,6.60
2022-10-31T14:43:14.525Z,6.17
2022-10-31T14:47:29.932Z,7.13
2022-10-31T14:51:38.954Z,6.40
2022-10-31T14:55:49.023Z,6.33
2022-10-31T15:00:00.794Z,6.50
2022-10-31T15:04:26.874Z,7.10
2022-10-31T15:08:40.142Z,6.90
2022-10-31T15:12:43.424Z,6.33
2022-10-31T15:16:48.133Z,6.27
2022-10-31T15:20:53.600Z,6.80
2022-10-31T15:24:58.316Z,8.07
2022-10-31T15:29:03.412Z,6.43
2022-10-31T15:34:07.467Z,6.90
2022-10-31T15:38:12.156Z,7.10
2022-10-31T15:42:28.064Z,6.27
2022-10-31T15:46:31.984Z,7.30
2022-10-31T15:50:40.578Z,7.00
2022-10-31T15:54:50.943Z,8.67
2022-10-31T15:58:55.782Z,8.30
2022-10-31T16:03:09.525Z,7.00
2022-10-31T16:07:22.953Z,8.00
2022-10-31T16:11:35.493Z,7.73
2022-10-31T16:15:38.918Z,7.43
2022-10-31T16:19:51.682Z,7.37
2022-10-31T16:24:03.782Z,8.00
2022-10-31T16:28:18.392Z,8.33
2022-10-31T16:32:34.352Z,8.60
2022-10-31T16:36:39.649Z,8.80
2022-10-31T16:40:43.626Z,9.50
2022-10-31T16:44:50.165Z,9.10
2022-10-31T16:48:54.148Z,10.20
2022-10-31T16:53:14.521Z,9.83
2022-10-31T16:57:21.138Z,12.63
2022-10-31T17:01:26.423Z,13.60
2022-10-31T17:05:30.505Z,10.50
2022-10-31T17:09:33.908Z,10.00
2022-10-31T17:13:37.659Z,11.17
2022-10-31T17:17:42.555Z,10.30
2022-10-31T17:22:26.987Z,11.53
2022-10-31T17:27:09.161Z,10.37
2022-10-31T17:37:01.652Z,9.93
2022-10-31T17:51:08.660Z,14.30
2022-10-31T17:55:15.201Z,12.87
2022-10-31T18:00:37.150Z,15.37
2022-10-31T18:04:41.580Z,14.13
2022-10-31T18:09:21.177Z,14.07
2022-10-31T18:13:52.689Z,13.33
2022-10-31T18:18:36.564Z,14.03
2022-10-31T18:23:27.306Z,12.93
2022-10-31T18:28:03.386Z,12.00
2022-10-31T18:32:48.178Z,12.03
2022-10-31T18:37:24.165Z,12.90
2022-10-31T18:41:50.773Z,13.13
2022-10-31T18:46:31.809Z,12.57
2022-10-31T18:51:06.366Z,13.50
2022-10-31T18:57:14.064Z,14.03
2022-10-31T19:00:41.605Z,14.33
2022-10-31T19:05:05.010Z,13.33
2022-10-31T19:09:38.883Z,14.80
2022-10-31T19:18:28.609Z,12.83
2022-10-31T19:22:43.665Z,13.97
2022-10-31T19:27:06.458Z,14.17
2022-10-31T19:31:21.521Z,13.90
2022-10-31T19:36:40.116Z,13.20
2022-10-31T19:41:18.012Z,13.90
2022-10-31T19:45:49.795Z,14.77
2022-10-31T20:00:02.550Z,15.90
2022-10-31T20:04:32.923Z,16.67
2022-10-31T20:17:35.541Z,23.70
2022-10-31T20:22:06.050Z,24.93
2022-10-31T20:26:34.450Z,24.77
2022-10-31T20:31:46.379Z,26.47
2022-10-31T20:37:13.958Z,25.47
2022-10-31T20:45:16.138Z,24.67
2022-10-31T20:49:48.002Z,22.40
2022-10-31T20:54:19.662Z,22.40
2022-10-31T20:59:51.161Z,24.07
2022-10-31T21:03:39.660Z,22.00
2022-10-31T21:12:36.644Z,20.80
2022-10-31T21:17:19.804Z,22.10
2022-10-31T21:27:26.970Z,22.07
2022-10-31T21:31:51.430Z,23.30
2022-10-31T21:35:57.776Z,23.60
2022-10-31T21:40:39.923Z,21.33
2022-10-31T21:45:24.032Z,21.50
2022-10-31T21:50:40.741Z,19.90
2022-10-31T21:55:20.378Z,20.10
2022-10-31T21:59:25.131Z,21.33
2022-10-31T22:04:09.765Z,24.83
2022-10-31T22:08:14.693Z,25.20
2022-10-31T22:12:28.868Z,19.87
2022-10-31T22:16:49.074Z,23.60
2022-10-31T22:21:20.712Z,23.47
2022-10-31T22:25:42.685Z,19.47
2022-10-31T22:29:58.058Z,23.50
2022-10-31T22:34:04.551Z,22.30
2022-10-31T22:38:33.422Z,21.57
2022-10-31T22:42:53.130Z,22.17
2022-10-31T22:47:06.481Z,21.00
2022-10-31T22:51:29.021Z,20.80
2022-10-31T22:56:32.782Z,20.73
2022-10-31T23:00:33.059Z,20.80
2022-10-31T23:14:11.003Z,18.97
2022-10-31T23:19:11.692Z,21.83
2022-10-31T23:23:33.584Z,19.03
2022-10-31T23:27:49.963Z,22.17
2022-10-31T23:32:06.123Z,18.63
2022-10-31T23:36:44.963Z,20.47
2022-10-31T23:40:58.419Z,21.20
2022-10-31T23:45:25.592Z,22.10
2022-10-31T23:49:55.914Z,17.57
2022-10-31T23:54:18.033Z,19.20
2022-10-31T23:58:31.452Z,20.83
